sensor_id;sensor_type;location;lat;lon;timestamp;temperature;humidity
21197;DHT22;10756;51.014;3.786;2022-07-29T00:01:34;18.70;99.90
21197;DHT22;10756;51.014;3.786;2022-07-29T00:04:00;18.70;99.90
21197;DHT22;10756;51.014;3.786;2022-07-29T00:06:26;18.70;99.90
21197;DHT22;10756;51.014;3.786;2022-07-29T00:08:51;18.70;99.90
21197;DHT22;10756;51.014;3.786;2022-07-29T00:11:17;18.70;99.90
21197;DHT22;10756;51.014;3.786;2022-07-29T00:13:42;18.70;99.90
21197;DHT22;10756;51.014;3.786;2022-07-29T00:16:08;18.80;99.90
21197;DHT22;10756;51.014;3.786;2022-07-29T00:18:34;18.70;99.90
21197;DHT22;10756;51.014;3.786;2022-07-29T00:20:59;18.60;99.90
21197;DHT22;10756;51.014;3.786;2022-07-29T00:23:25;18.50;99.90
21197;DHT22;10756;51.014;3.786;2022-07-29T00:25:50;18.50;99.90
21197;DHT22;10756;51.014;3.786;2022-07-29T00:28:16;18.50;99.90
21197;DHT22;10756;51.014;3.786;2022-07-29T00:30:42;18.40;99.90
21197;DHT22;10756;51.014;3.786;2022-07-29T00:33:09;18.40;99.90
21197;DHT22;10756;51.014;3.786;2022-07-29T00:35:35;18.30;99.90
21197;DHT22;10756;51.014;3.786;2022-07-29T00:38:13;18.20;99.90
21197;DHT22;10756;51.014;3.786;2022-07-29T00:40:42;18.30;99.90
21197;DHT22;10756;51.014;3.786;2022-07-29T00:43:08;18.20;99.90
21197;DHT22;10756;51.014;3.786;2022-07-29T00:45:34;18.10;99.90
21197;DHT22;10756;51.014;3.786;2022-07-29T00:48:00;17.90;99.90
21197;DHT22;10756;51.014;3.786;2022-07-29T00:50:26;17.90;99.90
21197;DHT22;10756;51.014;3.786;2022-07-29T00:52:52;17.80;99.90
21197;DHT22;10756;51.014;3.786;2022-07-29T00:55:18;17.70;99.90
21197;DHT22;10756;51.014;3.786;2022-07-29T00:57:44;17.70;99.90
21197;DHT22;10756;51.014;3.786;2022-07-29T01:00:17;17.60;99.90
21197;DHT22;10756;51.014;3.786;2022-07-29T01:02:43;17.60;99.90
21197;DHT22;10756;51.014;3.786;2022-07-29T01:05:10;17.40;99.90
21197;DHT22;10756;51.014;3.786;2022-07-29T01:07:37;17.40;99.90
21197;DHT22;10756;51.014;3.786;2022-07-29T01:10:04;17.30;99.90
21197;DHT22;10756;51.014;3.786;2022-07-29T01:12:32;17.30;99.90
21197;DHT22;10756;51.014;3.786;2022-07-29T01:15:03;17.40;99.90
21197;DHT22;10756;51.014;3.786;2022-07-29T01:31:11;17.10;99.90
21197;DHT22;10756;51.014;3.786;2022-07-29T01:33:43;17.00;99.90
21197;DHT22;10756;51.014;3.786;2022-07-29T01:36:22;17.00;99.90
21197;DHT22;10756;51.014;3.786;2022-07-29T01:39:09;16.90;99.90
21197;DHT22;10756;51.014;3.786;2022-07-29T01:41:38;16.90;99.90
21197;DHT22;10756;51.014;3.786;2022-07-29T01:44:12;16.80;99.90
21197;DHT22;10756;51.014;3.786;2022-07-29T01:46:46;16.70;99.90
21197;DHT22;10756;51.014;3.786;2022-07-29T01:49:17;16.70;99.90
21197;DHT22;10756;51.014;3.786;2022-07-29T01:51:47;16.70;99.90
21197;DHT22;10756;51.014;3.786;2022-07-29T01:56:48;16.60;99.90
21197;DHT22;10756;51.014;3.786;2022-07-29T01:59:16;16.60;99.90
21197;DHT22;10756;51.014;3.786;2022-07-29T02:01:47;16.50;99.90
21197;DHT22;10756;51.014;3.786;2022-07-29T02:04:15;16.50;99.90
21197;DHT22;10756;51.014;3.786;2022-07-29T02:06:42;16.50;99.90
21197;DHT22;10756;51.014;3.786;2022-07-29T02:09:10;16.40;99.90
21197;DHT22;10756;51.014;3.786;2022-07-29T02:11:38;16.40;99.90
21197;DHT22;10756;51.014;3.786;2022-07-29T02:14:05;16.30;99.90
21197;DHT22;10756;51.014;3.786;2022-07-29T02:16:33;16.30;99.90
21197;DHT22;10756;51.014;3.786;2022-07-29T02:19:02;16.20;99.90
21197;DHT22;10756;51.014;3.786;2022-07-29T02:21:29;16.10;99.90
21197;DHT22;10756;51.014;3.786;2022-07-29T02:23:58;16.00;99.90
21197;DHT22;10756;51.014;3.786;2022-07-29T02:26:25;16.00;99.90
21197;DHT22;10756;51.014;3.786;2022-07-29T02:28:54;16.00;99.90
21197;DHT22;10756;51.014;3.786;2022-07-29T02:31:24;16.10;99.90
21197;DHT22;10756;51.014;3.786;2022-07-29T02:33:52;16.00;99.90
21197;DHT22;10756;51.014;3.786;2022-07-29T02:36:21;15.90;99.90
21197;DHT22;10756;51.014;3.786;2022-07-29T02:38:48;15.90;99.90
21197;DHT22;10756;51.014;3.786;2022-07-29T02:44:06;15.80;99.90
21197;DHT22;10756;51.014;3.786;2022-07-29T02:46:36;15.80;99.90
21197;DHT22;10756;51.014;3.786;2022-07-29T02:51:55;15.60;99.90
21197;DHT22;10756;51.014;3.786;2022-07-29T02:56:59;15.60;99.90
21197;DHT22;10756;51.014;3.786;2022-07-29T02:59:27;15.50;99.90
21197;DHT22;10756;51.014;3.786;2022-07-29T03:01:55;15.50;99.90
21197;DHT22;10756;51.014;3.786;2022-07-29T03:04:24;15.50;99.90
21197;DHT22;10756;51.014;3.786;2022-07-29T03:06:52;15.60;99.90
21197;DHT22;10756;51.014;3.786;2022-07-29T03:09:18;15.60;99.90
21197;DHT22;10756;51.014;3.786;2022-07-29T03:11:44;15.50;99.90
21197;DHT22;10756;51.014;3.786;2022-07-29T03:14:12;15.50;99.90
21197;DHT22;10756;51.014;3.786;2022-07-29T03:16:38;15.40;99.90
21197;DHT22;10756;51.014;3.786;2022-07-29T03:19:05;15.40;99.90
21197;DHT22;10756;51.014;3.786;2022-07-29T03:21:31;15.30;99.90
21197;DHT22;10756;51.014;3.786;2022-07-29T03:23:56;15.20;99.90
21197;DHT22;10756;51.014;3.786;2022-07-29T03:26:22;15.30;99.90
21197;DHT22;10756;51.014;3.786;2022-07-29T03:28:48;15.30;99.90
21197;DHT22;10756;51.014;3.786;2022-07-29T03:31:14;15.30;99.90
21197;DHT22;10756;51.014;3.786;2022-07-29T03:33:39;15.20;99.90
21197;DHT22;10756;51.014;3.786;2022-07-29T03:36:05;15.20;99.90
21197;DHT22;10756;51.014;3.786;2022-07-29T03:38:33;15.20;99.90
21197;DHT22;10756;51.014;3.786;2022-07-29T03:41:09;15.20;99.90
21197;DHT22;10756;51.014;3.786;2022-07-29T03:43:38;15.20;99.90
21197;DHT22;10756;51.014;3.786;2022-07-29T03:46:07;15.20;99.90
21197;DHT22;10756;51.014;3.786;2022-07-29T03:48:34;15.20;99.90
21197;DHT22;10756;51.014;3.786;2022-07-29T03:51:02;15.10;99.90
21197;DHT22;10756;51.014;3.786;2022-07-29T03:53:28;15.10;99.90
21197;DHT22;10756;51.014;3.786;2022-07-29T03:55:58;15.10;99.90
21197;DHT22;10756;51.014;3.786;2022-07-29T03:58:26;15.00;99.90
21197;DHT22;10756;51.014;3.786;2022-07-29T04:00:52;15.00;99.90
21197;DHT22;10756;51.014;3.786;2022-07-29T04:03:18;15.00;99.90
21197;DHT22;10756;51.014;3.786;2022-07-29T04:05:44;14.90;99.90
21197;DHT22;10756;51.014;3.786;2022-07-29T04:08:09;14.90;99.90
21197;DHT22;10756;51.014;3.786;2022-07-29T04:10:35;14.90;99.90
21197;DHT22;10756;51.014;3.786;2022-07-29T04:13:00;14.90;99.90
21197;DHT22;10756;51.014;3.786;2022-07-29T04:15:26;14.90;99.90
21197;DHT22;10756;51.014;3.786;2022-07-29T04:17:54;14.90;99.90
21197;DHT22;10756;51.014;3.786;2022-07-29T04:20:20;14.90;99.90
21197;DHT22;10756;51.014;3.786;2022-07-29T04:22:45;14.80;99.90
21197;DHT22;10756;51.014;3.786;2022-07-29T04:25:11;14.90;99.90
21197;DHT22;10756;51.014;3.786;2022-07-29T04:27:36;14.90;99.90
21197;DHT22;10756;51.014;3.786;2022-07-29T04:30:22;14.90;99.90
21197;DHT22;10756;51.014;3.786;2022-07-29T04:32:47;14.80;99.90
21197;DHT22;10756;51.014;3.786;2022-07-29T04:35:13;14.80;99.90
21197;DHT22;10756;51.014;3.786;2022-07-29T04:37:38;14.90;99.90
21197;DHT22;10756;51.014;3.786;2022-07-29T04:40:05;14.90;99.90
21197;DHT22;10756;51.014;3.786;2022-07-29T04:42:30;14.80;99.90
21197;DHT22;10756;51.014;3.786;2022-07-29T04:44:56;14.80;99.90
21197;DHT22;10756;51.014;3.786;2022-07-29T04:47:22;14.80;99.90
21197;DHT22;10756;51.014;3.786;2022-07-29T04:49:47;14.90;99.90
21197;DHT22;10756;51.014;3.786;2022-07-29T04:52:13;14.90;99.90
21197;DHT22;10756;51.014;3.786;2022-07-29T04:54:38;15.00;99.90
21197;DHT22;10756;51.014;3.786;2022-07-29T04:57:04;14.90;99.90
21197;DHT22;10756;51.014;3.786;2022-07-29T04:59:30;15.00;99.90
21197;DHT22;10756;51.014;3.786;2022-07-29T05:01:55;15.00;99.90
21197;DHT22;10756;51.014;3.786;2022-07-29T05:04:21;15.20;99.90
21197;DHT22;10756;51.014;3.786;2022-07-29T05:06:47;15.40;99.90
21197;DHT22;10756;51.014;3.786;2022-07-29T05:09:13;15.60;99.90
21197;DHT22;10756;51.014;3.786;2022-07-29T05:11:38;15.70;99.90
21197;DHT22;10756;51.014;3.786;2022-07-29T05:14:04;15.70;99.90
21197;DHT22;10756;51.014;3.786;2022-07-29T05:16:30;15.70;99.90
21197;DHT22;10756;51.014;3.786;2022-07-29T05:18:55;15.70;99.90
21197;DHT22;10756;51.014;3.786;2022-07-29T05:21:21;15.80;99.90
21197;DHT22;10756;51.014;3.786;2022-07-29T05:23:47;15.90;99.90
21197;DHT22;10756;51.014;3.786;2022-07-29T05:26:12;15.90;99.90
21197;DHT22;10756;51.014;3.786;2022-07-29T05:28:38;15.90;99.90
21197;DHT22;10756;51.014;3.786;2022-07-29T05:31:03;15.90;99.90
21197;DHT22;10756;51.014;3.786;2022-07-29T05:33:29;16.00;99.90
21197;DHT22;10756;51.014;3.786;2022-07-29T05:35:55;16.00;99.90
21197;DHT22;10756;51.014;3.786;2022-07-29T05:38:21;16.10;99.90
21197;DHT22;10756;51.014;3.786;2022-07-29T05:40:46;16.20;99.90
21197;DHT22;10756;51.014;3.786;2022-07-29T05:43:12;16.30;99.90
21197;DHT22;10756;51.014;3.786;2022-07-29T05:45:39;16.40;99.90
21197;DHT22;10756;51.014;3.786;2022-07-29T05:48:04;16.40;99.90
21197;DHT22;10756;51.014;3.786;2022-07-29T05:50:30;16.40;99.90
21197;DHT22;10756;51.014;3.786;2022-07-29T05:52:56;16.60;99.90
21197;DHT22;10756;51.014;3.786;2022-07-29T05:55:21;16.60;99.90
21197;DHT22;10756;51.014;3.786;2022-07-29T05:57:47;16.70;99.90
21197;DHT22;10756;51.014;3.786;2022-07-29T06:00:13;16.80;99.90
21197;DHT22;10756;51.014;3.786;2022-07-29T06:02:38;16.80;99.90
21197;DHT22;10756;51.014;3.786;2022-07-29T06:05:04;16.90;99.90
21197;DHT22;10756;51.014;3.786;2022-07-29T06:07:30;17.00;99.90
21197;DHT22;10756;51.014;3.786;2022-07-29T06:09:56;17.00;99.90
21197;DHT22;10756;51.014;3.786;2022-07-29T06:12:21;17.10;99.90
21197;DHT22;10756;51.014;3.786;2022-07-29T06:14:47;17.30;99.90
21197;DHT22;10756;51.014;3.786;2022-07-29T06:17:16;17.40;99.90
21197;DHT22;10756;51.014;3.786;2022-07-29T06:19:41;17.40;99.90
21197;DHT22;10756;51.014;3.786;2022-07-29T06:22:07;17.50;99.90
21197;DHT22;10756;51.014;3.786;2022-07-29T06:24:33;17.60;99.90
21197;DHT22;10756;51.014;3.786;2022-07-29T06:26:58;17.70;99.90
21197;DHT22;10756;51.014;3.786;2022-07-29T06:29:24;17.70;99.90
21197;DHT22;10756;51.014;3.786;2022-07-29T06:31:50;17.90;99.90
21197;DHT22;10756;51.014;3.786;2022-07-29T06:34:16;18.00;99.90
21197;DHT22;10756;51.014;3.786;2022-07-29T06:36:41;18.00;99.90
21197;DHT22;10756;51.014;3.786;2022-07-29T06:39:08;18.10;99.90
21197;DHT22;10756;51.014;3.786;2022-07-29T06:41:34;18.10;99.90
21197;DHT22;10756;51.014;3.786;2022-07-29T06:44:00;18.20;99.90
21197;DHT22;10756;51.014;3.786;2022-07-29T06:46:25;18.30;99.90
21197;DHT22;10756;51.014;3.786;2022-07-29T06:48:51;18.40;99.90
21197;DHT22;10756;51.014;3.786;2022-07-29T06:51:17;18.50;99.90
21197;DHT22;10756;51.014;3.786;2022-07-29T06:53:43;18.70;99.90
21197;DHT22;10756;51.014;3.786;2022-07-29T06:56:09;18.70;99.90
21197;DHT22;10756;51.014;3.786;2022-07-29T06:58:35;19.00;99.90
21197;DHT22;10756;51.014;3.786;2022-07-29T07:01:03;19.10;99.90
21197;DHT22;10756;51.014;3.786;2022-07-29T07:03:29;18.90;99.90
21197;DHT22;10756;51.014;3.786;2022-07-29T07:05:54;19.10;99.90
21197;DHT22;10756;51.014;3.786;2022-07-29T07:08:21;19.20;99.90
21197;DHT22;10756;51.014;3.786;2022-07-29T07:10:47;19.20;99.90
21197;DHT22;10756;51.014;3.786;2022-07-29T07:13:13;19.20;99.90
21197;DHT22;10756;51.014;3.786;2022-07-29T07:15:40;19.30;99.90
21197;DHT22;10756;51.014;3.786;2022-07-29T07:18:06;19.30;99.90
21197;DHT22;10756;51.014;3.786;2022-07-29T07:20:33;19.40;99.90
21197;DHT22;10756;51.014;3.786;2022-07-29T07:22:59;19.50;99.90
21197;DHT22;10756;51.014;3.786;2022-07-29T07:25:25;19.50;99.90
21197;DHT22;10756;51.014;3.786;2022-07-29T07:27:50;19.60;99.90
21197;DHT22;10756;51.014;3.786;2022-07-29T07:30:16;19.70;99.90
21197;DHT22;10756;51.014;3.786;2022-07-29T07:32:42;19.60;99.90
21197;DHT22;10756;51.014;3.786;2022-07-29T07:35:09;19.70;99.90
21197;DHT22;10756;51.014;3.786;2022-07-29T07:37:35;19.70;99.90
21197;DHT22;10756;51.014;3.786;2022-07-29T07:40:01;19.80;99.90
21197;DHT22;10756;51.014;3.786;2022-07-29T07:42:27;20.00;99.90
21197;DHT22;10756;51.014;3.786;2022-07-29T07:44:53;20.00;99.90
21197;DHT22;10756;51.014;3.786;2022-07-29T07:47:19;20.10;99.90
21197;DHT22;10756;51.014;3.786;2022-07-29T07:49:49;20.20;99.90
21197;DHT22;10756;51.014;3.786;2022-07-29T07:52:17;20.40;99.90
21197;DHT22;10756;51.014;3.786;2022-07-29T07:54:43;20.70;99.90
21197;DHT22;10756;51.014;3.786;2022-07-29T07:57:12;20.70;99.90
21197;DHT22;10756;51.014;3.786;2022-07-29T07:59:38;20.80;99.90
21197;DHT22;10756;51.014;3.786;2022-07-29T08:02:05;21.00;99.90
21197;DHT22;10756;51.014;3.786;2022-07-29T08:04:31;21.00;99.90
21197;DHT22;10756;51.014;3.786;2022-07-29T08:06:58;21.00;99.90
21197;DHT22;10756;51.014;3.786;2022-07-29T08:09:25;21.10;99.90
21197;DHT22;10756;51.014;3.786;2022-07-29T08:11:51;21.30;99.90
21197;DHT22;10756;51.014;3.786;2022-07-29T08:14:17;21.40;99.90
21197;DHT22;10756;51.014;3.786;2022-07-29T08:16:43;21.40;99.90
21197;DHT22;10756;51.014;3.786;2022-07-29T08:19:09;21.60;99.90
21197;DHT22;10756;51.014;3.786;2022-07-29T08:21:35;21.80;99.90
21197;DHT22;10756;51.014;3.786;2022-07-29T08:24:01;21.90;99.90
21197;DHT22;10756;51.014;3.786;2022-07-29T08:26:37;21.90;99.90
21197;DHT22;10756;51.014;3.786;2022-07-29T08:29:03;21.90;99.90
21197;DHT22;10756;51.014;3.786;2022-07-29T08:31:29;22.00;99.90
21197;DHT22;10756;51.014;3.786;2022-07-29T08:33:54;22.00;99.90
21197;DHT22;10756;51.014;3.786;2022-07-29T08:36:21;22.00;99.90
21197;DHT22;10756;51.014;3.786;2022-07-29T08:38:47;22.30;99.90
21197;DHT22;10756;51.014;3.786;2022-07-29T08:41:14;22.30;99.90
21197;DHT22;10756;51.014;3.786;2022-07-29T08:43:40;22.50;99.90
21197;DHT22;10756;51.014;3.786;2022-07-29T08:46:07;22.80;99.90
21197;DHT22;10756;51.014;3.786;2022-07-29T08:48:32;22.90;99.90
21197;DHT22;10756;51.014;3.786;2022-07-29T08:50:59;23.00;99.90
21197;DHT22;10756;51.014;3.786;2022-07-29T08:53:27;23.00;99.90
21197;DHT22;10756;51.014;3.786;2022-07-29T08:55:53;23.10;99.90
21197;DHT22;10756;51.014;3.786;2022-07-29T08:58:20;23.20;99.90
21197;DHT22;10756;51.014;3.786;2022-07-29T09:00:51;23.30;99.90
21197;DHT22;10756;51.014;3.786;2022-07-29T09:03:23;23.40;99.90
21197;DHT22;10756;51.014;3.786;2022-07-29T09:05:50;23.60;99.90
21197;DHT22;10756;51.014;3.786;2022-07-29T09:08:17;23.30;99.90
21197;DHT22;10756;51.014;3.786;2022-07-29T09:10:43;23.50;99.90
21197;DHT22;10756;51.014;3.786;2022-07-29T09:13:09;23.50;99.90
21197;DHT22;10756;51.014;3.786;2022-07-29T09:15:35;23.60;99.90
21197;DHT22;10756;51.014;3.786;2022-07-29T09:18:00;23.40;99.90
21197;DHT22;10756;51.014;3.786;2022-07-29T09:20:27;23.60;99.90
21197;DHT22;10756;51.014;3.786;2022-07-29T09:23:13;23.90;99.90
21197;DHT22;10756;51.014;3.786;2022-07-29T09:25:40;24.10;99.90
21197;DHT22;10756;51.014;3.786;2022-07-29T09:28:10;23.80;99.90
21197;DHT22;10756;51.014;3.786;2022-07-29T09:30:50;24.30;99.90
21197;DHT22;10756;51.014;3.786;2022-07-29T09:33:16;24.00;99.90
21197;DHT22;10756;51.014;3.786;2022-07-29T09:35:42;24.50;99.90
21197;DHT22;10756;51.014;3.786;2022-07-29T09:38:12;24.50;99.90
21197;DHT22;10756;51.014;3.786;2022-07-29T09:40:41;24.80;99.90
21197;DHT22;10756;51.014;3.786;2022-07-29T09:43:20;24.90;99.90
21197;DHT22;10756;51.014;3.786;2022-07-29T09:45:46;25.20;99.90
21197;DHT22;10756;51.014;3.786;2022-07-29T09:48:21;25.20;99.90
21197;DHT22;10756;51.014;3.786;2022-07-29T09:50:48;25.40;99.90
21197;DHT22;10756;51.014;3.786;2022-07-29T09:53:30;25.70;99.90
21197;DHT22;10756;51.014;3.786;2022-07-29T09:55:56;25.90;99.90
21197;DHT22;10756;51.014;3.786;2022-07-29T09:58:22;25.80;99.90
21197;DHT22;10756;51.014;3.786;2022-07-29T10:00:49;25.80;99.90
21197;DHT22;10756;51.014;3.786;2022-07-29T10:03:16;25.90;99.90
21197;DHT22;10756;51.014;3.786;2022-07-29T10:05:42;25.80;99.90
21197;DHT22;10756;51.014;3.786;2022-07-29T10:08:09;26.00;99.90
21197;DHT22;10756;51.014;3.786;2022-07-29T10:10:40;26.30;99.90
21197;DHT22;10756;51.014;3.786;2022-07-29T10:13:14;25.80;99.90
21197;DHT22;10756;51.014;3.786;2022-07-29T10:15:41;25.50;99.90
21197;DHT22;10756;51.014;3.786;2022-07-29T10:18:10;25.60;99.90
21197;DHT22;10756;51.014;3.786;2022-07-29T10:20:36;25.90;99.90
21197;DHT22;10756;51.014;3.786;2022-07-29T10:23:02;26.10;99.90
21197;DHT22;10756;51.014;3.786;2022-07-29T10:25:28;26.60;99.90
21197;DHT22;10756;51.014;3.786;2022-07-29T10:27:54;26.90;99.90
21197;DHT22;10756;51.014;3.786;2022-07-29T10:30:22;27.00;99.90
21197;DHT22;10756;51.014;3.786;2022-07-29T10:38:13;28.20;99.90
21197;DHT22;10756;51.014;3.786;2022-07-29T10:43:31;28.00;99.90
21197;DHT22;10756;51.014;3.786;2022-07-29T10:46:01;28.50;99.90
21197;DHT22;10756;51.014;3.786;2022-07-29T10:48:31;28.90;99.90
21197;DHT22;10756;51.014;3.786;2022-07-29T10:51:01;29.40;99.90
21197;DHT22;10756;51.014;3.786;2022-07-29T10:56:29;29.50;99.90
21197;DHT22;10756;51.014;3.786;2022-07-29T11:01:43;30.20;99.90
21197;DHT22;10756;51.014;3.786;2022-07-29T11:04:08;30.60;99.90
21197;DHT22;10756;51.014;3.786;2022-07-29T11:09:22;30.70;99.90
21197;DHT22;10756;51.014;3.786;2022-07-29T11:11:48;30.70;99.90
21197;DHT22;10756;51.014;3.786;2022-07-29T11:14:14;30.20;99.90
21197;DHT22;10756;51.014;3.786;2022-07-29T11:19:30;29.40;99.90
21197;DHT22;10756;51.014;3.786;2022-07-29T11:21:55;29.00;99.90
21197;DHT22;10756;51.014;3.786;2022-07-29T11:24:32;28.80;99.90
21197;DHT22;10756;51.014;3.786;2022-07-29T11:29:38;28.70;99.00
21197;DHT22;10756;51.014;3.786;2022-07-29T11:32:13;28.70;98.80
21197;DHT22;10756;51.014;3.786;2022-07-29T11:34:45;29.00;98.40
21197;DHT22;10756;51.014;3.786;2022-07-29T11:39:47;31.50;94.40
21197;DHT22;10756;51.014;3.786;2022-07-29T11:44:57;31.70;94.80
21197;DHT22;10756;51.014;3.786;2022-07-29T11:47:27;32.80;92.60
21197;DHT22;10756;51.014;3.786;2022-07-29T11:49:55;33.50;90.60
21197;DHT22;10756;51.014;3.786;2022-07-29T11:52:21;33.30;90.00
21197;DHT22;10756;51.014;3.786;2022-07-29T11:54:48;34.60;84.20
21197;DHT22;10756;51.014;3.786;2022-07-29T11:57:18;34.40;84.10
21197;DHT22;10756;51.014;3.786;2022-07-29T11:59:45;34.90;79.60
21197;DHT22;10756;51.014;3.786;2022-07-29T12:02:12;35.60;76.20
21197;DHT22;10756;51.014;3.786;2022-07-29T12:07:15;38.20;70.30
21197;DHT22;10756;51.014;3.786;2022-07-29T12:09:49;39.40;64.50
21197;DHT22;10756;51.014;3.786;2022-07-29T12:12:16;39.50;60.80
21197;DHT22;10756;51.014;3.786;2022-07-29T12:14:42;39.40;58.20
21197;DHT22;10756;51.014;3.786;2022-07-29T12:17:25;38.00;59.50
21197;DHT22;10756;51.014;3.786;2022-07-29T12:19:51;36.10;60.90
21197;DHT22;10756;51.014;3.786;2022-07-29T12:22:32;34.90;65.30
21197;DHT22;10756;51.014;3.786;2022-07-29T12:25:10;34.40;66.50
21197;DHT22;10756;51.014;3.786;2022-07-29T12:27:37;35.00;64.40
21197;DHT22;10756;51.014;3.786;2022-07-29T12:30:17;37.10;61.50
21197;DHT22;10756;51.014;3.786;2022-07-29T12:32:47;39.20;57.20
21197;DHT22;10756;51.014;3.786;2022-07-29T12:35:15;37.80;56.30
21197;DHT22;10756;51.014;3.786;2022-07-29T12:37:44;35.10;59.70
21197;DHT22;10756;51.014;3.786;2022-07-29T12:40:11;33.80;61.60
21197;DHT22;10756;51.014;3.786;2022-07-29T12:42:38;33.10;63.60
21197;DHT22;10756;51.014;3.786;2022-07-29T12:45:05;32.70;63.20
21197;DHT22;10756;51.014;3.786;2022-07-29T12:47:31;33.50;62.10
21197;DHT22;10756;51.014;3.786;2022-07-29T12:50:18;35.30;61.20
21197;DHT22;10756;51.014;3.786;2022-07-29T12:52:47;37.60;60.20
21197;DHT22;10756;51.014;3.786;2022-07-29T12:58:28;39.70;56.30
21197;DHT22;10756;51.014;3.786;2022-07-29T13:03:26;40.60;53.70
21197;DHT22;10756;51.014;3.786;2022-07-29T13:05:51;41.00;52.00
21197;DHT22;10756;51.014;3.786;2022-07-29T13:08:20;40.80;51.70
21197;DHT22;10756;51.014;3.786;2022-07-29T13:10:55;41.50;50.40
21197;DHT22;10756;51.014;3.786;2022-07-29T13:13:20;42.20;49.90
21197;DHT22;10756;51.014;3.786;2022-07-29T13:16:05;40.30;48.90
21197;DHT22;10756;51.014;3.786;2022-07-29T13:18:34;38.10;51.80
21197;DHT22;10756;51.014;3.786;2022-07-29T13:21:13;36.30;53.40
21197;DHT22;10756;51.014;3.786;2022-07-29T13:23:39;34.60;56.20
21197;DHT22;10756;51.014;3.786;2022-07-29T13:26:06;33.60;58.40
21197;DHT22;10756;51.014;3.786;2022-07-29T13:28:32;33.60;60.10
21197;DHT22;10756;51.014;3.786;2022-07-29T13:30:57;35.10;58.40
21197;DHT22;10756;51.014;3.786;2022-07-29T13:33:23;37.00;55.40
21197;DHT22;10756;51.014;3.786;2022-07-29T13:35:49;39.00;52.70
21197;DHT22;10756;51.014;3.786;2022-07-29T13:38:20;39.30;51.70
21197;DHT22;10756;51.014;3.786;2022-07-29T13:40:47;38.80;51.80
21197;DHT22;10756;51.014;3.786;2022-07-29T13:43:12;37.10;53.90
21197;DHT22;10756;51.014;3.786;2022-07-29T13:45:38;35.50;56.00
21197;DHT22;10756;51.014;3.786;2022-07-29T13:48:04;34.50;56.60
21197;DHT22;10756;51.014;3.786;2022-07-29T13:50:30;33.40;58.80
21197;DHT22;10756;51.014;3.786;2022-07-29T13:52:55;32.50;60.50
21197;DHT22;10756;51.014;3.786;2022-07-29T13:55:21;32.10;62.60
21197;DHT22;10756;51.014;3.786;2022-07-29T13:57:47;32.00;64.10
21197;DHT22;10756;51.014;3.786;2022-07-29T14:00:13;31.80;65.00
21197;DHT22;10756;51.014;3.786;2022-07-29T14:02:40;31.50;65.60
21197;DHT22;10756;51.014;3.786;2022-07-29T14:05:06;31.70;66.00
21197;DHT22;10756;51.014;3.786;2022-07-29T14:07:32;32.80;64.70
21197;DHT22;10756;51.014;3.786;2022-07-29T14:10:02;33.20;64.30
21197;DHT22;10756;51.014;3.786;2022-07-29T14:12:31;34.90;59.80
21197;DHT22;10756;51.014;3.786;2022-07-29T14:14:57;36.20;57.20
21197;DHT22;10756;51.014;3.786;2022-07-29T14:17:23;37.60;56.40
21197;DHT22;10756;51.014;3.786;2022-07-29T14:19:48;39.30;53.20
21197;DHT22;10756;51.014;3.786;2022-07-29T14:22:23;40.10;52.20
21197;DHT22;10756;51.014;3.786;2022-07-29T14:24:50;41.70;51.60
21197;DHT22;10756;51.014;3.786;2022-07-29T14:27:22;42.10;50.00
21197;DHT22;10756;51.014;3.786;2022-07-29T14:29:59;42.60;48.90
21197;DHT22;10756;51.014;3.786;2022-07-29T14:32:24;42.90;48.50
21197;DHT22;10756;51.014;3.786;2022-07-29T14:34:50;42.40;47.30
21197;DHT22;10756;51.014;3.786;2022-07-29T14:37:16;41.10;48.70
21197;DHT22;10756;51.014;3.786;2022-07-29T14:39:42;41.60;48.10
21197;DHT22;10756;51.014;3.786;2022-07-29T14:42:11;41.40;47.70
21197;DHT22;10756;51.014;3.786;2022-07-29T14:44:40;41.40;46.80
21197;DHT22;10756;51.014;3.786;2022-07-29T14:47:06;40.90;47.50
21197;DHT22;10756;51.014;3.786;2022-07-29T14:49:32;42.40;46.70
21197;DHT22;10756;51.014;3.786;2022-07-29T14:51:57;42.70;46.00
21197;DHT22;10756;51.014;3.786;2022-07-29T14:54:23;42.10;45.50
21197;DHT22;10756;51.014;3.786;2022-07-29T14:56:48;42.00;46.20
21197;DHT22;10756;51.014;3.786;2022-07-29T14:59:16;42.70;45.70
21197;DHT22;10756;51.014;3.786;2022-07-29T15:01:47;41.90;45.40
21197;DHT22;10756;51.014;3.786;2022-07-29T15:04:16;42.70;45.60
21197;DHT22;10756;51.014;3.786;2022-07-29T15:06:41;42.40;45.40
21197;DHT22;10756;51.014;3.786;2022-07-29T15:09:17;42.70;44.80
21197;DHT22;10756;51.014;3.786;2022-07-29T15:11:43;41.40;45.60
21197;DHT22;10756;51.014;3.786;2022-07-29T15:14:12;42.20;45.40
21197;DHT22;10756;51.014;3.786;2022-07-29T15:16:40;41.70;44.20
21197;DHT22;10756;51.014;3.786;2022-07-29T15:19:08;41.10;45.40
21197;DHT22;10756;51.014;3.786;2022-07-29T15:21:33;40.50;45.40
21197;DHT22;10756;51.014;3.786;2022-07-29T15:24:02;40.60;45.80
21197;DHT22;10756;51.014;3.786;2022-07-29T15:26:28;40.10;46.60
21197;DHT22;10756;51.014;3.786;2022-07-29T15:28:54;40.80;46.50
21197;DHT22;10756;51.014;3.786;2022-07-29T15:31:21;39.80;46.20
21197;DHT22;10756;51.014;3.786;2022-07-29T15:33:50;39.20;46.70
21197;DHT22;10756;51.014;3.786;2022-07-29T15:36:19;39.50;47.30
21197;DHT22;10756;51.014;3.786;2022-07-29T15:38:45;39.80;46.60
21197;DHT22;10756;51.014;3.786;2022-07-29T15:41:14;39.90;46.70
21197;DHT22;10756;51.014;3.786;2022-07-29T15:43:51;40.50;46.30
21197;DHT22;10756;51.014;3.786;2022-07-29T15:46:20;40.50;46.00
21197;DHT22;10756;51.014;3.786;2022-07-29T15:48:57;40.40;46.80
21197;DHT22;10756;51.014;3.786;2022-07-29T15:51:23;39.50;47.20
21197;DHT22;10756;51.014;3.786;2022-07-29T15:53:49;38.90;48.40
21197;DHT22;10756;51.014;3.786;2022-07-29T15:56:15;39.70;48.30
21197;DHT22;10756;51.014;3.786;2022-07-29T15:58:40;40.00;47.00
21197;DHT22;10756;51.014;3.786;2022-07-29T16:01:06;39.50;47.90
21197;DHT22;10756;51.014;3.786;2022-07-29T16:03:32;39.70;47.70
21197;DHT22;10756;51.014;3.786;2022-07-29T16:05:57;39.20;48.20
21197;DHT22;10756;51.014;3.786;2022-07-29T16:08:23;39.60;48.70
21197;DHT22;10756;51.014;3.786;2022-07-29T16:10:49;39.40;48.60
21197;DHT22;10756;51.014;3.786;2022-07-29T16:13:14;38.50;48.90
21197;DHT22;10756;51.014;3.786;2022-07-29T16:15:40;38.90;48.50
21197;DHT22;10756;51.014;3.786;2022-07-29T16:18:06;39.50;48.10
21197;DHT22;10756;51.014;3.786;2022-07-29T16:20:33;39.40;48.10
21197;DHT22;10756;51.014;3.786;2022-07-29T16:22:59;39.10;47.90
21197;DHT22;10756;51.014;3.786;2022-07-29T16:25:25;39.40;48.30
21197;DHT22;10756;51.014;3.786;2022-07-29T16:27:50;39.20;48.30
21197;DHT22;10756;51.014;3.786;2022-07-29T16:30:16;39.50;47.70
21197;DHT22;10756;51.014;3.786;2022-07-29T16:32:41;39.70;47.10